createdAt,value
2018-03-01T00:00:16.826Z,0.00
2018-03-01T00:01:16.654Z,0.00
2018-03-01T00:02:16.630Z,0.00
2018-03-01T00:03:16.468Z,0.00
2018-03-01T00:04:16.472Z,0.00
2018-03-01T00:05:16.294Z,0.00
2018-03-01T00:06:16.280Z,0.00
2018-03-01T00:07:16.125Z,0.00
2018-03-01T00:08:16.050Z,0.00
2018-03-01T00:09:15.932Z,0.00
2018-03-01T00:10:16.001Z,0.00
2018-03-01T00:11:15.767Z,0.00
2018-03-01T00:12:15.780Z,0.00
2018-03-01T00:13:15.602Z,0.00
2018-03-01T00:14:15.593Z,0.00
2018-03-01T00:15:15.433Z,0.00
2018-03-01T00:16:15.407Z,0.00
2018-03-01T00:17:15.239Z,0.00
2018-03-01T00:18:15.208Z,0.00
2018-03-01T00:19:15.068Z,0.00
2018-03-01T00:20:15.067Z,0.00
2018-03-01T00:21:14.901Z,0.00
2018-03-01T00:22:14.822Z,0.00
2018-03-01T00:23:14.728Z,0.00
2018-03-01T00:24:14.727Z,0.00
2018-03-01T00:25:14.558Z,0.00
2018-03-01T00:26:14.576Z,0.00
2018-03-01T00:27:14.384Z,0.00
2018-03-01T00:28:14.348Z,0.00
2018-03-01T00:29:14.183Z,0.00
2018-03-01T00:30:14.149Z,0.00
2018-03-01T00:31:14.032Z,0.00
2018-03-01T00:32:13.973Z,0.00
2018-03-01T00:33:13.836Z,0.00
2018-03-01T00:34:13.882Z,0.00
2018-03-01T00:35:13.664Z,0.00
2018-03-01T00:36:13.718Z,0.00
2018-03-01T00:37:13.488Z,0.00
2018-03-01T00:38:13.519Z,0.00
2018-03-01T00:39:13.324Z,0.00
2018-03-01T00:40:13.321Z,0.00
2018-03-01T00:41:13.157Z,0.00
2018-03-01T00:42:13.141Z,0.00
2018-03-01T00:43:12.976Z,0.00
2018-03-01T00:44:12.945Z,0.00
2018-03-01T00:45:12.792Z,0.00
2018-03-01T00:46:12.830Z,0.00
2018-03-01T00:47:12.615Z,0.00
2018-03-01T00:48:12.665Z,0.00
2018-03-01T00:49:12.435Z,0.00
2018-03-01T00:50:12.453Z,0.00
2018-03-01T00:51:12.267Z,0.00
2018-03-01T00:52:12.278Z,0.00
2018-03-01T00:53:12.101Z,0.00
2018-03-01T00:54:12.067Z,0.00
2018-03-01T00:55:11.911Z,0.00
2018-03-01T00:56:11.873Z,0.00
2018-03-01T00:57:11.842Z,0.00
2018-03-01T00:58:11.784Z,0.00
2018-03-01T00:59:11.565Z,0.00
2018-03-01T01:00:12.467Z,0.00
2018-03-01T01:01:11.394Z,0.00
2018-03-01T01:02:11.393Z,0.00
2018-03-01T01:03:11.230Z,0.00
2018-03-01T01:04:11.207Z,0.00
2018-03-01T01:05:11.085Z,0.00
2018-03-01T01:06:11.017Z,0.00
2018-03-01T01:07:10.863Z,0.00
2018-03-01T01:08:10.851Z,0.00
2018-03-01T01:09:10.691Z,0.00
2018-03-01T01:10:10.635Z,0.00
2018-03-01T01:11:10.515Z,0.00
2018-03-01T01:12:10.588Z,0.00
2018-03-01T01:13:10.356Z,0.00
2018-03-01T01:14:10.349Z,0.00
2018-03-01T01:15:10.166Z,0.00
2018-03-01T01:16:10.164Z,0.00
2018-03-01T01:17:09.986Z,0.00
2018-03-01T01:18:10.001Z,0.00
2018-03-01T01:19:09.814Z,0.00
2018-03-01T01:20:09.773Z,0.00
2018-03-01T01:21:09.657Z,0.00
2018-03-01T01:22:09.686Z,0.00
2018-03-01T01:23:09.496Z,0.00
2018-03-01T01:24:09.495Z,0.00
2018-03-01T01:25:09.285Z,0.00
2018-03-01T01:26:09.302Z,0.00
2018-03-01T01:27:09.976Z,0.00
2018-03-01T01:28:09.138Z,0.00
2018-03-01T01:29:08.962Z,0.00
2018-03-01T01:30:08.950Z,0.00
2018-03-01T01:31:08.766Z,0.00
2018-03-01T01:32:08.725Z,0.00
2018-03-01T01:33:08.595Z,0.00
2018-03-01T01:34:08.520Z,0.00
2018-03-01T01:35:08.421Z,0.00
2018-03-01T01:36:08.445Z,0.00
2018-03-01T01:37:08.241Z,0.00
2018-03-01T01:38:08.246Z,0.00
2018-03-01T01:39:08.082Z,0.00
2018-03-01T01:40:08.065Z,0.00
2018-03-01T01:41:07.940Z,0.00
2018-03-01T01:42:07.870Z,0.00
2018-03-01T01:43:07.722Z,0.00
2018-03-01T01:44:07.812Z,0.00
2018-03-01T01:45:07.544Z,0.00
2018-03-01T01:46:07.590Z,0.00
2018-03-01T01:47:07.363Z,0.00
2018-03-01T01:48:07.299Z,0.00
2018-03-01T01:49:07.201Z,0.00
2018-03-01T01:50:07.240Z,0.00
2018-03-01T01:51:07.015Z,0.00
2018-03-01T01:52:07.015Z,0.00
2018-03-01T01:53:06.858Z,0.00
2018-03-01T01:54:06.825Z,0.00
2018-03-01T01:55:06.696Z,0.00
2018-03-01T01:56:06.635Z,0.00
2018-03-01T01:57:06.508Z,0.00
2018-03-01T01:58:06.447Z,0.00
2018-03-01T01:59:06.327Z,0.00
2018-03-01T02:00:06.415Z,0.00
2018-03-01T02:01:06.141Z,0.00
2018-03-01T02:02:06.155Z,0.00
2018-03-01T02:03:05.968Z,0.00
2018-03-01T02:04:05.976Z,0.00
2018-03-01T02:05:05.813Z,0.00
2018-03-01T02:06:05.772Z,0.00
2018-03-01T02:07:05.620Z,0.00
2018-03-01T02:08:05.591Z,0.00
2018-03-01T02:09:05.451Z,0.00
2018-03-01T02:10:05.421Z,0.00
2018-03-01T02:11:05.277Z,0.00
2018-03-01T02:12:05.320Z,0.00
2018-03-01T02:13:05.108Z,0.00
2018-03-01T02:14:05.118Z,0.00
2018-03-01T02:15:04.917Z,0.00
2018-03-01T02:16:05.008Z,0.00
2018-03-01T02:17:04.793Z,0.00
2018-03-01T02:18:04.729Z,0.00
2018-03-01T02:19:04.574Z,0.00
2018-03-01T02:20:04.541Z,0.00
2018-03-01T02:21:04.412Z,0.00
2018-03-01T02:22:04.345Z,0.00
2018-03-01T02:23:04.220Z,0.00
2018-03-01T02:24:04.262Z,0.00
2018-03-01T02:25:04.048Z,0.00
2018-03-01T02:26:04.098Z,0.00
2018-03-01T02:27:03.885Z,0.00
2018-03-01T02:28:03.870Z,0.00
2018-03-01T02:29:03.699Z,0.00
2018-03-01T02:30:03.679Z,0.00
2018-03-01T02:31:03.569Z,0.00
2018-03-01T02:32:03.534Z,0.00
2018-03-01T02:33:03.358Z,0.00
2018-03-01T02:34:03.352Z,0.00
2018-03-01T02:35:03.165Z,0.00
2018-03-01T02:36:03.207Z,0.00
2018-03-01T02:37:03.022Z,0.00
2018-03-01T02:38:03.017Z,0.00
2018-03-01T02:39:02.821Z,0.00
2018-03-01T02:40:02.825Z,0.00
2018-03-01T02:41:02.636Z,0.00
2018-03-01T02:42:02.672Z,0.00
2018-03-01T02:43:02.490Z,0.00
2018-03-01T02:44:02.439Z,0.00
2018-03-01T02:45:02.297Z,0.00
2018-03-01T02:46:02.260Z,0.00
2018-03-01T02:47:02.123Z,0.00
2018-03-01T02:48:02.091Z,0.00
2018-03-01T02:49:01.961Z,0.00
2018-03-01T02:50:01.981Z,0.00
2018-03-01T02:51:01.767Z,0.00
2018-03-01T02:52:01.776Z,0.00
2018-03-01T02:53:01.620Z,0.00
2018-03-01T02:54:01.585Z,0.00
2018-03-01T02:55:01.424Z,0.00
2018-03-01T02:56:01.399Z,0.00
2018-03-01T02:57:01.251Z,0.00
2018-03-01T02:58:01.245Z,0.00
2018-03-01T02:59:01.076Z,0.00
2018-03-01T03:00:01.011Z,0.00
2018-03-01T03:01:00.959Z,0.00
2018-03-01T03:02:00.921Z,0.00
2018-03-01T03:03:00.735Z,0.00
2018-03-01T03:04:00.883Z,0.00
2018-03-01T03:05:00.549Z,0.00
2018-03-01T03:06:00.545Z,0.00
2018-03-01T03:07:00.360Z,0.00
2018-03-01T03:08:00.354Z,0.00
2018-03-01T03:09:00.208Z,0.00
2018-03-01T03:10:00.165Z,0.00
2018-03-01T03:11:00.015Z,0.00
2018-03-01T03:11:59.964Z,0.00
2018-03-01T03:12:59.844Z,0.00
2018-03-01T03:13:59.870Z,0.00
2018-03-01T03:14:59.691Z,0.00
2018-03-01T03:15:59.682Z,0.00
2018-03-01T03:16:59.485Z,0.00
2018-03-01T03:17:59.494Z,0.00
2018-03-01T03:18:59.363Z,0.00
2018-03-01T03:19:59.297Z,0.00
2018-03-01T03:20:59.143Z,0.00
2018-03-01T03:21:59.104Z,0.00
2018-03-01T03:22:58.969Z,0.00
2018-03-01T03:23:58.953Z,0.00
2018-03-01T03:24:58.787Z,0.00
2018-03-01T03:25:58.838Z,0.00
2018-03-01T03:26:58.616Z,0.00
2018-03-01T03:27:58.629Z,0.00
2018-03-01T03:28:58.456Z,0.00
2018-03-01T03:29:58.438Z,0.00
2018-03-01T03:30:58.258Z,0.00
2018-03-01T03:31:58.251Z,0.00
2018-03-01T03:32:58.096Z,0.00
2018-03-01T03:33:58.061Z,0.00
2018-03-01T03:34:57.942Z,0.00
2018-03-01T03:35:57.870Z,0.00
2018-03-01T03:36:57.740Z,0.00
2018-03-01T03:37:57.791Z,0.00
2018-03-01T03:38:57.565Z,0.00
2018-03-01T03:39:57.634Z,0.00
2018-03-01T03:40:57.391Z,0.00
2018-03-01T03:41:57.397Z,0.00
2018-03-01T03:42:57.225Z,0.00
2018-03-01T03:43:57.211Z,0.00
2018-03-01T03:44:57.172Z,0.00
2018-03-01T03:45:57.054Z,0.00
2018-03-01T03:46:56.879Z,0.00
2018-03-01T03:47:56.927Z,0.00
2018-03-01T03:48:56.693Z,0.00
2018-03-01T03:49:56.759Z,0.00
2018-03-01T03:50:56.516Z,0.00
2018-03-01T03:51:56.547Z,0.00
2018-03-01T03:52:56.342Z,0.00
2018-03-01T03:53:56.355Z,0.00
2018-03-01T03:54:56.175Z,0.00
2018-03-01T03:55:56.200Z,0.00
2018-03-01T03:56:55.983Z,0.00
2018-03-01T03:57:55.968Z,0.00
2018-03-01T03:58:55.813Z,0.00
2018-03-01T03:59:55.784Z,0.00
2018-03-01T04:00:55.662Z,0.00
2018-03-01T04:01:55.691Z,0.00
2018-03-01T04:02:55.461Z,0.00
2018-03-01T04:03:55.799Z,0.00
2018-03-01T04:04:55.349Z,0.00
2018-03-01T04:05:55.363Z,0.00
2018-03-01T04:06:55.110Z,0.00
2018-03-01T04:07:55.108Z,0.00
2018-03-01T04:08:54.939Z,0.00
2018-03-01T04:09:54.924Z,0.00
2018-03-01T04:10:54.781Z,0.00
2018-03-01T04:11:54.729Z,0.00
2018-03-01T04:12:54.585Z,0.00
2018-03-01T04:13:54.543Z,0.00
2018-03-01T04:14:54.457Z,0.00
2018-03-01T04:15:54.387Z,0.00
2018-03-01T04:16:54.249Z,0.00
2018-03-01T04:17:54.265Z,0.00
2018-03-01T04:18:54.054Z,0.00
2018-03-01T04:19:54.063Z,0.00
2018-03-01T04:20:53.911Z,0.00
2018-03-01T04:21:53.881Z,0.00
2018-03-01T04:22:53.711Z,0.00
2018-03-01T04:23:53.675Z,0.00
2018-03-01T04:24:53.535Z,0.00
2018-03-01T04:25:53.525Z,0.00
2018-03-01T04:26:53.378Z,0.00
2018-03-01T04:27:53.394Z,0.00
2018-03-01T04:28:53.183Z,0.00
2018-03-01T04:29:53.209Z,0.00
2018-03-01T04:30:53.002Z,0.00
2018-03-01T04:31:53.087Z,0.00
2018-03-01T04:32:52.835Z,0.00
2018-03-01T04:33:52.831Z,0.00
2018-03-01T04:34:52.653Z,0.00
2018-03-01T04:35:52.632Z,0.00
2018-03-01T04:36:52.490Z,0.00
2018-03-01T04:37:52.481Z,0.00
2018-03-01T04:38:52.311Z,0.00
2018-03-01T04:39:52.247Z,0.00
2018-03-01T04:40:52.140Z,0.00
2018-03-01T04:41:52.161Z,0.00
2018-03-01T04:42:51.974Z,0.00
2018-03-01T04:43:51.967Z,0.00
2018-03-01T04:44:51.781Z,0.00
2018-03-01T04:45:51.788Z,0.00
2018-03-01T04:46:51.598Z,0.00
2018-03-01T04:47:51.622Z,0.00
2018-03-01T04:48:51.553Z,0.00
2018-03-01T04:49:51.391Z,0.00
2018-03-01T04:50:51.258Z,0.00
2018-03-01T04:51:51.197Z,0.00
2018-03-01T04:52:51.093Z,0.00
2018-03-01T04:53:51.114Z,0.00
2018-03-01T04:54:50.899Z,0.00
2018-03-01T04:55:50.918Z,0.00
2018-03-01T04:56:50.726Z,0.00
2018-03-01T04:57:50.756Z,0.00
2018-03-01T04:58:50.650Z,0.00
2018-03-01T04:59:50.533Z,0.00
2018-03-01T05:00:50.382Z,0.00
2018-03-01T05:01:50.349Z,0.00
2018-03-01T05:02:50.210Z,0.00
2018-03-01T05:03:50.154Z,0.00
2018-03-01T05:04:50.022Z,0.00
2018-03-01T05:05:50.067Z,0.00
2018-03-01T05:06:49.854Z,0.00
2018-03-01T05:07:49.906Z,0.00
2018-03-01T05:08:49.707Z,0.00
2018-03-01T05:09:49.707Z,0.00
2018-03-01T05:10:49.495Z,0.00
2018-03-01T05:11:49.497Z,0.00
2018-03-01T05:12:49.344Z,0.00
2018-03-01T05:13:49.343Z,0.00
2018-03-01T05:14:49.145Z,0.00
2018-03-01T05:15:49.117Z,0.00
2018-03-01T05:16:48.971Z,0.00
2018-03-01T05:17:49.013Z,0.00
2018-03-01T05:18:48.819Z,0.00
2018-03-01T05:19:48.823Z,0.00
2018-03-01T05:20:48.624Z,0.00
2018-03-01T05:21:48.631Z,0.00
2018-03-01T05:22:48.463Z,0.00
2018-03-01T05:23:48.480Z,0.00
2018-03-01T05:24:48.280Z,0.00
2018-03-01T05:25:48.252Z,0.00
2018-03-01T05:26:48.100Z,0.00
2018-03-01T05:27:48.054Z,0.00
2018-03-01T05:28:47.923Z,0.00
2018-03-01T05:29:48.003Z,0.00
2018-03-01T05:30:47.759Z,0.00
2018-03-01T05:31:47.775Z,0.00
2018-03-01T05:32:48.479Z,0.00
2018-03-01T05:33:47.583Z,0.00
2018-03-01T05:34:47.431Z,0.00
2018-03-01T05:35:47.490Z,0.00
2018-03-01T05:36:47.235Z,0.00
2018-03-01T05:37:47.203Z,0.00
2018-03-01T05:38:47.061Z,0.00
2018-03-01T05:39:46.996Z,0.00
2018-03-01T05:40:46.900Z,0.00
2018-03-01T05:41:46.807Z,0.00
2018-03-01T05:42:46.709Z,0.00
2018-03-01T05:43:46.623Z,0.00
2018-03-01T05:44:46.534Z,0.00
2018-03-01T05:45:46.451Z,0.00
2018-03-01T05:46:46.377Z,0.00
2018-03-01T05:47:46.286Z,0.00
2018-03-01T05:48:46.185Z,0.00
2018-03-01T05:49:46.114Z,0.00
2018-03-01T05:50:46.008Z,4.00
2018-03-01T05:51:45.956Z,4.00
2018-03-01T05:52:45.832Z,0.00
2018-03-01T05:53:45.762Z,4.00
2018-03-01T05:54:45.679Z,4.00
2018-03-01T05:55:45.585Z,4.00
2018-03-01T05:56:45.541Z,4.00
2018-03-01T05:57:45.433Z,4.00
2018-03-01T05:58:45.312Z,8.00
2018-03-01T05:59:45.249Z,8.00
2018-03-01T06:00:45.140Z,8.00
2018-03-01T06:03:27.436Z,12.00
2018-03-01T06:04:27.333Z,16.00
2018-03-01T06:05:27.237Z,16.00
2018-03-01T06:06:27.165Z,20.00
2018-03-01T06:07:27.104Z,24.00
2018-03-01T06:08:26.985Z,28.00
2018-03-01T06:09:26.916Z,32.00
2018-03-01T06:10:26.813Z,36.00
2018-03-01T06:11:26.708Z,40.00
2018-03-01T06:12:26.652Z,48.00
2018-03-01T06:13:26.561Z,52.00
2018-03-01T06:31:48.905Z,236.00
2018-03-01T06:32:48.803Z,272.00
2018-03-01T06:33:48.719Z,292.00
2018-03-01T06:34:48.622Z,316.00
2018-03-01T06:35:48.544Z,356.00
2018-03-01T06:36:48.458Z,356.00
2018-03-01T06:37:48.375Z,368.00
2018-03-01T06:40:30.423Z,440.00
2018-03-01T06:41:30.344Z,476.00
2018-03-01T06:42:30.236Z,544.00
2018-03-01T06:43:30.180Z,572.00
2018-03-01T06:44:30.064Z,596.00
2018-03-01T06:45:29.981Z,668.00
2018-03-01T06:46:29.883Z,656.00
2018-03-01T06:47:29.867Z,680.00
2018-03-01T06:48:29.716Z,772.00
2018-03-01T06:49:29.637Z,784.00
2018-03-01T06:50:29.536Z,784.00
2018-03-01T06:51:29.479Z,844.00
2018-03-01T06:52:29.361Z,832.00
2018-03-01T06:53:29.310Z,836.00
2018-03-01T06:54:29.191Z,864.00
2018-03-01T06:55:29.134Z,892.00
2018-03-01T06:56:29.019Z,924.00
2018-03-01T06:57:28.943Z,980.00
2018-03-01T06:58:28.872Z,1044.00
2018-03-01T06:59:28.791Z,1072.00
2018-03-01T07:00:28.675Z,1092.00
2018-03-01T07:01:28.608Z,1156.00
2018-03-01T07:02:28.506Z,1248.00
2018-03-01T07:03:28.442Z,1260.00
2018-03-01T07:04:28.348Z,1204.00
2018-03-01T07:05:28.304Z,1180.00
2018-03-01T07:06:28.213Z,1232.00
2018-03-01T07:07:28.089Z,1300.00
2018-03-01T07:08:28.001Z,1280.00
2018-03-01T07:09:27.918Z,1268.00
2018-03-01T07:10:27.809Z,1284.00
2018-03-01T07:11:27.732Z,1288.00
2018-03-01T07:12:27.641Z,1288.00
2018-03-01T07:13:27.572Z,1296.00
2018-03-01T07:14:27.481Z,1340.00
2018-03-01T07:15:27.382Z,1404.00
2018-03-01T07:16:27.287Z,1460.00
2018-03-01T07:17:27.218Z,1484.00
2018-03-01T07:18:27.129Z,1540.00
2018-03-01T07:19:27.071Z,1608.00
2018-03-01T07:20:26.950Z,1688.00
2018-03-01T07:21:26.876Z,1696.00
2018-03-01T07:22:26.778Z,1700.00
2018-03-01T07:23:26.688Z,1832.00
2018-03-01T07:24:26.601Z,1892.00
2018-03-01T07:25:26.583Z,1884.00
2018-03-01T07:26:26.431Z,2036.00
2018-03-01T07:27:26.346Z,2080.00
2018-03-01T07:28:26.249Z,2140.00
2018-03-01T07:29:26.175Z,2236.00
2018-03-01T07:30:26.109Z,2312.00
2018-03-01T07:31:26.000Z,2444.00
2018-03-01T07:32:25.905Z,2636.00
2018-03-01T07:33:25.835Z,2616.00
2018-03-01T07:34:25.728Z,2808.00
2018-03-01T07:35:25.748Z,2832.00
2018-03-01T07:36:25.606Z,2676.00
2018-03-01T07:37:25.476Z,2560.00
2018-03-01T07:38:25.433Z,2664.00
2018-03-01T07:39:25.324Z,2824.00
2018-03-01T07:40:25.232Z,2776.00
2018-03-01T07:41:25.133Z,2872.00
2018-03-01T07:42:25.041Z,3956.00
2018-03-01T07:43:24.976Z,3268.00
2018-03-01T07:44:24.876Z,3344.00
2018-03-01T07:45:24.823Z,3704.00
2018-03-01T07:46:24.703Z,5012.00
2018-03-01T07:47:24.611Z,3328.00
2018-03-01T07:48:24.528Z,4628.00
2018-03-01T07:49:24.537Z,3380.00
2018-03-01T07:50:24.348Z,4124.00
2018-03-01T07:51:24.296Z,3572.00
2018-03-01T07:52:24.196Z,4248.00
2018-03-01T07:53:24.093Z,4320.00
2018-03-01T07:54:24.005Z,3884.00
2018-03-01T07:55:23.970Z,3776.00
2018-03-01T07:56:23.847Z,4232.00
2018-03-01T07:57:23.778Z,3636.00
2018-03-01T07:58:23.664Z,4576.00
2018-03-01T07:59:23.586Z,3536.00
2018-03-01T08:00:23.489Z,3408.00
2018-03-01T08:01:23.421Z,3616.00
2018-03-01T08:02:23.338Z,3616.00
2018-03-01T08:03:23.250Z,3644.00
2018-03-01T08:04:23.140Z,4624.00
2018-03-01T08:05:23.132Z,3560.00
2018-03-01T08:06:22.972Z,3564.00
2018-03-01T08:07:22.921Z,3420.00
2018-03-01T08:08:22.848Z,3504.00
2018-03-01T08:09:22.730Z,3496.00
2018-03-01T08:10:22.646Z,3600.00
2018-03-01T08:11:22.557Z,5740.00
2018-03-01T08:12:22.656Z,5708.00
2018-03-01T08:13:22.397Z,3708.00
2018-03-01T08:14:22.305Z,3668.00
2018-03-01T08:15:22.226Z,3520.00
2018-03-01T08:16:22.137Z,3468.00
2018-03-01T08:17:22.144Z,3476.00
2018-03-01T08:18:21.987Z,3584.00
2018-03-01T08:19:21.873Z,3672.00
2018-03-01T08:20:21.807Z,3560.00
2018-03-01T08:21:21.705Z,4112.00
2018-03-01T08:22:21.623Z,4004.00
2018-03-01T08:23:21.571Z,3496.00
2018-03-01T08:24:21.449Z,3316.00
2018-03-01T08:25:21.366Z,3584.00
2018-03-01T08:26:21.264Z,3340.00
2018-03-01T08:27:21.197Z,3232.00
2018-03-01T08:28:21.116Z,3468.00
2018-03-01T08:29:21.016Z,3692.00
2018-03-01T08:30:20.923Z,4016.00
2018-03-01T08:31:20.898Z,5012.00
2018-03-01T08:32:20.750Z,4204.00
2018-03-01T08:33:20.714Z,4364.00
2018-03-01T08:34:20.601Z,5176.00
2018-03-01T08:35:20.520Z,4572.00
2018-03-01T08:36:20.406Z,5292.00
2018-03-01T08:37:20.333Z,5584.00
2018-03-01T08:38:20.277Z,6176.00
2018-03-01T08:39:20.209Z,5164.00
2018-03-01T08:40:20.067Z,5264.00
2018-03-01T08:41:20.003Z,5524.00
2018-03-01T08:42:19.969Z,5884.00
2018-03-01T08:43:19.840Z,8228.00
2018-03-01T08:44:19.763Z,11400.00
2018-03-01T08:45:19.668Z,10268.00
2018-03-01T08:46:19.562Z,12056.00
2018-03-01T08:47:19.484Z,12580.00
2018-03-01T08:48:19.387Z,12416.00
2018-03-01T08:49:19.345Z,12492.00
2018-03-01T08:50:19.226Z,12660.00
2018-03-01T08:51:19.166Z,12636.00
2018-03-01T08:52:19.056Z,12724.00
2018-03-01T08:53:18.999Z,12764.00
2018-03-01T08:54:18.920Z,9344.00
2018-03-01T08:55:18.826Z,10608.00
2018-03-01T08:56:18.726Z,7852.00
2018-03-01T08:57:18.660Z,9260.00
2018-03-01T08:58:18.558Z,6484.00
2018-03-01T08:59:18.515Z,6132.00
2018-03-01T09:00:18.387Z,5876.00
2018-03-01T09:01:18.365Z,5440.00
2018-03-01T09:02:18.233Z,5176.00
2018-03-01T09:03:18.174Z,5056.00
2018-03-01T09:04:18.063Z,5272.00
2018-03-01T09:05:18.018Z,6232.00
2018-03-01T09:06:17.921Z,8260.00
2018-03-01T09:07:17.837Z,7644.00
2018-03-01T09:08:17.739Z,11640.00
2018-03-01T09:09:17.673Z,11236.00
2018-03-01T09:10:17.593Z,11336.00
2018-03-01T09:11:17.506Z,11588.00
2018-03-01T09:12:17.412Z,11316.00
2018-03-01T09:13:17.339Z,11240.00
2018-03-01T09:14:17.267Z,11020.00
2018-03-01T09:15:17.281Z,11196.00
2018-03-01T09:16:17.085Z,7912.00
2018-03-01T09:17:17.056Z,10700.00
2018-03-01T09:18:16.922Z,6452.00
2018-03-01T09:19:16.859Z,6268.00
2018-03-01T09:20:16.771Z,9164.00
2018-03-01T09:21:16.676Z,6688.00
2018-03-01T09:22:16.591Z,11592.00
2018-03-01T09:23:16.516Z,11696.00
2018-03-01T09:24:16.441Z,11340.00
2018-03-01T09:25:16.387Z,11632.00
2018-03-01T09:26:16.288Z,7080.00
2018-03-01T09:27:16.198Z,7920.00
2018-03-01T09:28:16.105Z,5892.00
2018-03-01T09:29:16.051Z,6184.00
2018-03-01T09:30:15.985Z,5320.00
2018-03-01T09:31:15.895Z,9664.00
2018-03-01T09:32:15.790Z,6056.00
2018-03-01T09:33:15.719Z,6112.00
2018-03-01T09:34:15.616Z,5832.00
2018-03-01T09:35:15.569Z,8960.00
2018-03-01T09:36:15.485Z,9392.00
2018-03-01T09:37:15.382Z,7860.00
2018-03-01T09:38:15.329Z,9120.00
2018-03-01T09:39:15.217Z,8064.00
2018-03-01T09:40:15.133Z,13052.00
2018-03-01T09:41:15.076Z,10664.00
2018-03-01T09:42:14.963Z,9424.00
2018-03-01T09:43:14.972Z,11760.00
2018-03-01T09:44:14.799Z,10736.00
2018-03-01T09:45:14.741Z,9432.00
2018-03-01T09:46:14.681Z,9648.00
2018-03-01T09:47:14.570Z,12860.00
2018-03-01T09:48:14.489Z,9672.00
2018-03-01T09:49:14.396Z,10920.00
2018-03-01T09:50:14.321Z,11304.00
2018-03-01T09:51:14.244Z,11532.00
2018-03-01T09:52:14.165Z,17728.00
2018-03-01T09:53:14.077Z,14944.00
2018-03-01T09:54:13.988Z,11740.00
2018-03-01T09:55:13.912Z,14180.00
2018-03-01T09:56:13.825Z,11836.00
2018-03-01T09:57:13.761Z,18112.00
2018-03-01T09:58:13.665Z,11276.00
2018-03-01T09:59:13.583Z,13676.00
2018-03-01T10:00:13.487Z,11552.00
2018-03-01T10:01:14.043Z,12688.00
2018-03-01T10:02:13.356Z,11208.00
2018-03-01T10:03:13.256Z,18688.00
2018-03-01T10:04:13.156Z,14696.00
2018-03-01T10:05:13.101Z,14736.00
2018-03-01T10:06:12.996Z,13168.00
2018-03-01T10:07:12.946Z,17408.00
2018-03-01T10:08:12.999Z,17664.00
2018-03-01T10:09:12.815Z,17024.00
2018-03-01T10:10:12.669Z,16768.00
2018-03-01T10:11:12.616Z,16672.00
2018-03-01T10:12:12.515Z,17376.00
2018-03-01T10:13:12.469Z,18656.00
2018-03-01T10:14:12.349Z,18176.00
2018-03-01T10:15:12.301Z,19520.00
2018-03-01T10:16:12.184Z,21056.00
2018-03-01T10:17:12.120Z,22144.00
2018-03-01T10:18:12.040Z,22528.00
2018-03-01T10:19:11.950Z,23552.00
2018-03-01T10:20:11.883Z,24160.00
2018-03-01T10:21:11.791Z,26368.00
2018-03-01T10:22:11.732Z,25984.00
2018-03-01T10:23:11.667Z,25664.00
2018-03-01T10:24:11.568Z,25984.00
2018-03-01T10:25:11.474Z,25472.00
2018-03-01T10:26:11.389Z,27776.00
2018-03-01T10:27:11.322Z,28416.00
2018-03-01T10:28:11.294Z,28128.00
2018-03-01T10:29:11.153Z,28000.00
2018-03-01T10:30:11.061Z,27616.00
2018-03-01T10:31:10.999Z,28192.00
2018-03-01T10:32:10.906Z,27904.00
2018-03-01T10:33:10.835Z,27808.00
2018-03-01T10:34:10.763Z,27840.00
2018-03-01T10:35:10.685Z,27616.00
2018-03-01T10:36:10.600Z,28512.00
2018-03-01T10:38:52.456Z,22016.00
2018-03-01T10:39:52.380Z,24512.00
2018-03-01T10:40:52.279Z,24832.00
2018-03-01T10:41:52.209Z,27456.00
2018-03-01T10:42:52.114Z,27392.00
2018-03-01T10:43:52.034Z,28640.00
2018-03-01T10:44:52.020Z,28864.00
2018-03-01T10:45:51.905Z,29792.00
2018-03-01T10:46:51.790Z,32608.00
2018-03-01T10:47:51.725Z,32832.00
2018-03-01T10:48:51.635Z,33952.00
2018-03-01T10:49:51.576Z,34688.00
2018-03-01T10:50:51.491Z,30656.00
2018-03-01T10:51:51.426Z,31488.00
2018-03-01T10:52:51.327Z,28672.00
2018-03-01T10:53:51.246Z,26848.00
2018-03-01T10:54:51.156Z,24768.00
2018-03-01T10:55:51.116Z,27488.00
2018-03-01T10:56:51.008Z,26912.00
2018-03-01T10:57:50.923Z,27104.00
2018-03-01T10:58:50.839Z,17600.00
2018-03-01T10:59:50.760Z,23872.00
2018-03-01T11:00:50.721Z,17376.00
2018-03-01T11:01:50.630Z,13520.00
2018-03-01T11:02:50.519Z,10208.00
2018-03-01T11:03:50.452Z,9908.00
2018-03-01T11:04:50.389Z,9740.00
2018-03-01T11:05:50.317Z,10620.00
2018-03-01T11:06:50.198Z,10700.00
2018-03-01T11:07:50.137Z,11300.00
2018-03-01T11:08:50.044Z,11304.00
2018-03-01T11:09:49.969Z,11196.00
2018-03-01T11:10:49.895Z,10660.00
2018-03-01T11:11:49.835Z,10340.00
2018-03-01T11:12:49.718Z,10232.00
2018-03-01T11:13:49.662Z,10264.00
2018-03-01T11:14:49.567Z,10192.00
2018-03-01T11:15:49.483Z,10056.00
2018-03-01T11:16:49.406Z,9768.00
2018-03-01T11:17:49.340Z,9612.00
2018-03-01T11:18:49.251Z,9972.00
2018-03-01T11:19:49.163Z,10204.00
2018-03-01T11:20:49.107Z,10296.00
2018-03-01T11:21:49.030Z,10304.00
2018-03-01T11:22:48.898Z,10372.00
2018-03-01T11:23:48.846Z,10580.00
2018-03-01T11:24:48.833Z,10960.00
2018-03-01T11:25:48.669Z,11168.00
2018-03-01T11:26:48.604Z,11696.00
2018-03-01T11:27:48.523Z,11812.00
2018-03-01T11:28:48.427Z,11792.00
2018-03-01T11:29:48.384Z,11592.00
2018-03-01T11:30:48.260Z,11396.00
2018-03-01T11:31:48.187Z,11676.00
2018-03-01T11:32:48.105Z,12248.00
2018-03-01T11:33:48.019Z,10996.00
2018-03-01T11:34:47.971Z,10864.00
2018-03-01T11:35:47.854Z,11160.00
2018-03-01T11:36:47.773Z,11224.00
2018-03-01T11:37:47.823Z,10712.00
2018-03-01T11:38:47.601Z,10676.00
2018-03-01T11:39:47.518Z,10424.00
2018-03-01T11:40:47.428Z,10564.00
2018-03-01T11:41:47.366Z,10684.00
2018-03-01T11:42:47.587Z,10672.00
2018-03-01T11:43:48.214Z,11444.00
2018-03-01T11:44:47.102Z,11360.00
2018-03-01T11:45:47.026Z,11568.00
2018-03-01T11:46:46.939Z,11776.00
2018-03-01T11:47:46.899Z,11848.00
2018-03-01T11:48:46.797Z,11328.00
2018-03-01T11:49:46.695Z,10900.00
2018-03-01T11:50:46.621Z,11528.00
2018-03-01T11:51:46.540Z,12808.00
2018-03-01T11:52:46.451Z,12776.00
2018-03-01T11:53:46.386Z,14084.00
2018-03-01T11:54:46.394Z,15256.00
2018-03-01T11:55:46.204Z,14300.00
2018-03-01T11:56:46.126Z,16256.00
2018-03-01T11:57:46.113Z,18400.00
2018-03-01T11:58:45.968Z,18144.00
2018-03-01T11:59:45.888Z,18048.00
2018-03-01T12:00:45.791Z,17152.00
2018-03-01T12:01:45.720Z,18048.00
2018-03-01T12:02:45.631Z,17440.00
2018-03-01T12:03:45.569Z,16960.00
2018-03-01T12:04:45.455Z,18176.00
2018-03-01T12:05:45.379Z,17856.00
2018-03-01T12:06:45.294Z,17216.00
2018-03-01T12:07:45.223Z,20672.00
2018-03-01T12:08:45.143Z,20864.00
2018-03-01T12:09:45.056Z,25120.00
2018-03-01T12:10:44.966Z,35616.00
2018-03-01T12:11:45.478Z,28512.00
2018-03-01T12:12:44.805Z,40768.00
2018-03-01T12:13:44.757Z,33728.00
2018-03-01T12:14:44.639Z,30304.00
2018-03-01T12:15:44.566Z,26272.00
2018-03-01T12:16:44.474Z,20160.00
2018-03-01T12:17:44.405Z,18880.00
2018-03-01T12:18:44.320Z,28160.00
2018-03-01T12:19:44.262Z,32000.00
2018-03-01T12:20:44.142Z,25152.00
2018-03-01T12:21:44.084Z,20160.00
2018-03-01T12:22:43.990Z,21472.00
2018-03-01T12:23:43.917Z,14516.00
2018-03-01T12:24:43.867Z,13268.00
2018-03-01T12:25:43.760Z,11768.00
2018-03-01T12:26:43.658Z,10628.00
2018-03-01T12:27:43.612Z,9708.00
2018-03-01T12:28:43.516Z,9000.00
2018-03-01T12:29:43.456Z,8520.00
2018-03-01T12:30:43.445Z,8244.00
2018-03-01T12:31:43.283Z,8080.00
2018-03-01T12:32:43.167Z,7844.00
2018-03-01T12:33:43.109Z,7916.00
2018-03-01T12:34:43.048Z,7636.00
2018-03-01T12:35:42.969Z,7544.00
2018-03-01T12:36:42.861Z,7076.00
2018-03-01T12:37:42.785Z,6984.00
2018-03-01T12:38:42.692Z,7024.00
2018-03-01T12:39:42.613Z,6956.00
2018-03-01T12:40:42.538Z,6988.00
2018-03-01T12:41:42.448Z,7232.00
2018-03-01T12:42:42.363Z,7400.00
2018-03-01T12:43:42.303Z,7508.00
2018-03-01T12:44:42.232Z,7456.00
2018-03-01T12:45:42.130Z,7376.00
2018-03-01T12:46:42.031Z,7320.00
2018-03-01T12:47:41.965Z,6924.00
2018-03-01T12:48:41.862Z,6648.00
2018-03-01T12:49:41.789Z,6776.00
2018-03-01T12:50:42.239Z,6772.00
2018-03-01T12:51:41.636Z,6912.00
2018-03-01T12:52:41.542Z,6748.00
2018-03-01T12:53:41.512Z,6372.00
2018-03-01T12:54:41.371Z,6024.00
2018-03-01T12:55:41.336Z,5776.00